International Virtual Aviation Organisation

Russian Federation and Kazakhstan MCD

 
UAKK 250500Z 06004MPS CAVOK M16/M19 Q1031 R05/850550 NOSIG RMK QFE725/0967
QNH:(hPa/inHg/mmHg)1031 / 30.45 / 773
QFE:(hPa/inHg/mmHg)966 / 28.51 / 724
Temperature-16
Dew Point-19
Visibility> 10000
WeatherCAVOK
Cloud Cover
Transition Height10000 m./34600 ft.
Transition LevelFL360
SQUAWK